Cargill, Canada
Current Conditions -  °F | °C
As of 10:14 PM on Thursday 27 Nov 2014 (Local Time) from CYVV Reporting Station
Broken Clouds Broken Clouds  
Wind Chill: 11°   Ceiling: 4000
Heat Index: 23°   Visibility: 15mi
Dew Point: 12°   Wind: 13mph
Humidity: 63%   Direction: 300°WNW
Pressure: 30.14"   Gusts: 22mph
Location:  44.2°N, 81.23°W
Report Text: CYVV 280314Z 30011G19KT 15SM BKN040 M05/M11 A3014 RMK SC7 SLP220
Loading
Personal Weather Stations






























Interactive Weather Map New forecast layout! Learn more

10-Day Weather Forecast

Advertisements
Track Severe Weather on mobile